sensor_id;sensor_type;location;lat;lon;timestamp;temperature;humidity
18690;DHT22;9782;52.930;15.562;2023-07-28T00:00:45;17.00;1.00
18690;DHT22;9782;52.930;15.562;2023-07-28T00:03:12;17.00;1.00
18690;DHT22;9782;52.930;15.562;2023-07-28T00:05:39;16.90;1.00
18690;DHT22;9782;52.930;15.562;2023-07-28T00:08:06;16.90;1.00
18690;DHT22;9782;52.930;15.562;2023-07-28T00:10:33;16.90;1.00
18690;DHT22;9782;52.930;15.562;2023-07-28T00:13:01;16.90;1.00
18690;DHT22;9782;52.930;15.562;2023-07-28T00:15:29;17.00;1.00
18690;DHT22;9782;52.930;15.562;2023-07-28T00:17:56;17.00;1.00
18690;DHT22;9782;52.930;15.562;2023-07-28T00:20:25;17.00;1.00
18690;DHT22;9782;52.930;15.562;2023-07-28T00:22:52;17.00;1.00
18690;DHT22;9782;52.930;15.562;2023-07-28T00:25:19;17.00;1.00
18690;DHT22;9782;52.930;15.562;2023-07-28T00:27:50;16.90;1.00
18690;DHT22;9782;52.930;15.562;2023-07-28T00:30:18;16.90;1.00
18690;DHT22;9782;52.930;15.562;2023-07-28T00:32:45;16.90;1.00
18690;DHT22;9782;52.930;15.562;2023-07-28T00:35:12;16.90;1.00
18690;DHT22;9782;52.930;15.562;2023-07-28T00:37:39;16.90;1.00
18690;DHT22;9782;52.930;15.562;2023-07-28T00:42:35;16.90;1.00
18690;DHT22;9782;52.930;15.562;2023-07-28T00:45:02;17.00;1.00
18690;DHT22;9782;52.930;15.562;2023-07-28T00:47:30;17.00;1.00
18690;DHT22;9782;52.930;15.562;2023-07-28T00:49:57;17.00;1.00
18690;DHT22;9782;52.930;15.562;2023-07-28T00:52:25;17.00;1.00
18690;DHT22;9782;52.930;15.562;2023-07-28T00:54:52;17.00;1.00
18690;DHT22;9782;52.930;15.562;2023-07-28T00:57:19;17.00;1.00
18690;DHT22;9782;52.930;15.562;2023-07-28T00:59:46;17.10;1.00
18690;DHT22;9782;52.930;15.562;2023-07-28T01:02:13;17.10;1.00
18690;DHT22;9782;52.930;15.562;2023-07-28T01:04:42;17.00;1.00
18690;DHT22;9782;52.930;15.562;2023-07-28T01:07:12;17.10;1.00
18690;DHT22;9782;52.930;15.562;2023-07-28T01:09:49;17.10;1.00
18690;DHT22;9782;52.930;15.562;2023-07-28T01:12:17;17.10;1.00
18690;DHT22;9782;52.930;15.562;2023-07-28T01:14:44;17.10;1.00
18690;DHT22;9782;52.930;15.562;2023-07-28T01:17:11;17.10;1.00
18690;DHT22;9782;52.930;15.562;2023-07-28T01:19:38;17.10;1.00
18690;DHT22;9782;52.930;15.562;2023-07-28T01:22:49;17.10;1.00
18690;DHT22;9782;52.930;15.562;2023-07-28T01:25:24;17.10;1.00
18690;DHT22;9782;52.930;15.562;2023-07-28T01:27:55;17.00;1.00
18690;DHT22;9782;52.930;15.562;2023-07-28T01:30:23;17.10;1.00
18690;DHT22;9782;52.930;15.562;2023-07-28T01:32:54;17.00;10.70
18690;DHT22;9782;52.930;15.562;2023-07-28T01:35:21;17.00;84.70
18690;DHT22;9782;52.930;15.562;2023-07-28T01:37:48;16.90;91.90
18690;DHT22;9782;52.930;15.562;2023-07-28T01:40:16;16.90;99.90
18690;DHT22;9782;52.930;15.562;2023-07-28T01:42:43;17.00;99.90
18690;DHT22;9782;52.930;15.562;2023-07-28T01:45:12;16.90;99.90
18690;DHT22;9782;52.930;15.562;2023-07-28T01:47:39;17.00;99.90
18690;DHT22;9782;52.930;15.562;2023-07-28T01:52:41;17.10;99.90
18690;DHT22;9782;52.930;15.562;2023-07-28T01:55:10;17.10;99.90
18690;DHT22;9782;52.930;15.562;2023-07-28T01:57:39;17.10;99.90
18690;DHT22;9782;52.930;15.562;2023-07-28T02:00:07;17.10;99.90
18690;DHT22;9782;52.930;15.562;2023-07-28T02:02:38;17.10;98.10
18690;DHT22;9782;52.930;15.562;2023-07-28T02:05:06;17.10;96.70
18690;DHT22;9782;52.930;15.562;2023-07-28T02:07:33;17.20;99.90
18690;DHT22;9782;52.930;15.562;2023-07-28T02:10:00;17.20;99.90
18690;DHT22;9782;52.930;15.562;2023-07-28T02:12:27;17.20;91.10
18690;DHT22;9782;52.930;15.562;2023-07-28T02:14:54;17.10;99.90
18690;DHT22;9782;52.930;15.562;2023-07-28T02:17:21;17.20;98.80
18690;DHT22;9782;52.930;15.562;2023-07-28T02:19:49;17.20;95.40
18690;DHT22;9782;52.930;15.562;2023-07-28T02:22:18;17.20;77.90
18690;DHT22;9782;52.930;15.562;2023-07-28T02:24:45;17.20;69.10
18690;DHT22;9782;52.930;15.562;2023-07-28T02:27:12;17.20;72.50
18690;DHT22;9782;52.930;15.562;2023-07-28T02:29:39;17.20;89.20
18690;DHT22;9782;52.930;15.562;2023-07-28T02:32:08;17.20;94.30
18690;DHT22;9782;52.930;15.562;2023-07-28T02:34:37;17.30;99.90
18690;DHT22;9782;52.930;15.562;2023-07-28T02:37:06;17.30;99.90
18690;DHT22;9782;52.930;15.562;2023-07-28T02:39:33;17.30;99.90
18690;DHT22;9782;52.930;15.562;2023-07-28T02:42:00;17.30;99.90
18690;DHT22;9782;52.930;15.562;2023-07-28T02:44:27;17.30;99.90
18690;DHT22;9782;52.930;15.562;2023-07-28T02:46:54;17.30;99.90
18690;DHT22;9782;52.930;15.562;2023-07-28T02:49:21;17.30;99.90
18690;DHT22;9782;52.930;15.562;2023-07-28T02:51:48;17.30;99.90
18690;DHT22;9782;52.930;15.562;2023-07-28T02:54:16;17.30;99.90
18690;DHT22;9782;52.930;15.562;2023-07-28T02:56:46;17.30;99.90
18690;DHT22;9782;52.930;15.562;2023-07-28T02:59:14;17.30;99.90
18690;DHT22;9782;52.930;15.562;2023-07-28T03:01:43;17.40;99.90
18690;DHT22;9782;52.930;15.562;2023-07-28T03:04:10;17.40;99.90
18690;DHT22;9782;52.930;15.562;2023-07-28T03:06:37;17.30;99.90
18690;DHT22;9782;52.930;15.562;2023-07-28T03:09:04;17.30;99.90
18690;DHT22;9782;52.930;15.562;2023-07-28T03:11:33;17.20;99.90
18690;DHT22;9782;52.930;15.562;2023-07-28T03:14:00;17.20;99.90
18690;DHT22;9782;52.930;15.562;2023-07-28T03:16:28;17.20;99.90
18690;DHT22;9782;52.930;15.562;2023-07-28T03:18:55;17.20;99.90
18690;DHT22;9782;52.930;15.562;2023-07-28T03:21:23;17.30;99.90
18690;DHT22;9782;52.930;15.562;2023-07-28T03:23:50;17.30;99.90
18690;DHT22;9782;52.930;15.562;2023-07-28T03:26:17;17.30;99.90
18690;DHT22;9782;52.930;15.562;2023-07-28T03:28:46;17.30;99.90
18690;DHT22;9782;52.930;15.562;2023-07-28T03:31:13;17.30;99.90
18690;DHT22;9782;52.930;15.562;2023-07-28T03:38:50;17.20;99.90
18690;DHT22;9782;52.930;15.562;2023-07-28T03:43:57;17.20;99.90
18690;DHT22;9782;52.930;15.562;2023-07-28T03:46:24;17.20;99.90
18690;DHT22;9782;52.930;15.562;2023-07-28T03:54:02;17.30;99.90
18690;DHT22;9782;52.930;15.562;2023-07-28T07:02:34;21.50;1.00
18690;DHT22;9782;52.930;15.562;2023-07-28T07:05:01;21.60;1.00
18690;DHT22;9782;52.930;15.562;2023-07-28T07:07:28;21.50;1.00
18690;DHT22;9782;52.930;15.562;2023-07-28T07:09:54;21.50;1.00
18690;DHT22;9782;52.930;15.562;2023-07-28T07:12:21;21.50;1.00
18690;DHT22;9782;52.930;15.562;2023-07-28T07:14:48;21.30;1.00
18690;DHT22;9782;52.930;15.562;2023-07-28T07:17:15;21.20;1.00
18690;DHT22;9782;52.930;15.562;2023-07-28T07:19:43;21.20;1.00
18690;DHT22;9782;52.930;15.562;2023-07-28T07:22:10;21.30;1.00
18690;DHT22;9782;52.930;15.562;2023-07-28T07:24:37;21.60;1.00
18690;DHT22;9782;52.930;15.562;2023-07-28T07:34:51;22.60;99.90
18690;DHT22;9782;52.930;15.562;2023-07-28T07:37:19;22.90;99.90
18690;DHT22;9782;52.930;15.562;2023-07-28T07:39:49;23.20;1.00
18690;DHT22;9782;52.930;15.562;2023-07-28T07:42:16;23.30;1.00
18690;DHT22;9782;52.930;15.562;2023-07-28T07:44:43;23.30;99.90
18690;DHT22;9782;52.930;15.562;2023-07-28T07:47:14;23.20;99.90
18690;DHT22;9782;52.930;15.562;2023-07-28T07:49:41;23.20;99.90
18690;DHT22;9782;52.930;15.562;2023-07-28T07:52:09;23.30;99.90
18690;DHT22;9782;52.930;15.562;2023-07-28T07:54:37;23.20;99.90
18690;DHT22;9782;52.930;15.562;2023-07-28T07:57:05;23.20;99.90
18690;DHT22;9782;52.930;15.562;2023-07-28T07:59:32;23.30;99.90
18690;DHT22;9782;52.930;15.562;2023-07-28T08:01:59;23.40;99.90
18690;DHT22;9782;52.930;15.562;2023-07-28T08:04:28;23.60;55.10
18690;DHT22;9782;52.930;15.562;2023-07-28T08:06:56;23.80;1.00
18690;DHT22;9782;52.930;15.562;2023-07-28T08:09:24;23.90;1.00
18690;DHT22;9782;52.930;15.562;2023-07-28T08:11:51;24.30;1.00
18690;DHT22;9782;52.930;15.562;2023-07-28T08:14:19;24.80;99.90
18690;DHT22;9782;52.930;15.562;2023-07-28T08:16:46;25.10;1.00
18690;DHT22;9782;52.930;15.562;2023-07-28T08:19:13;24.90;99.90
18690;DHT22;9782;52.930;15.562;2023-07-28T08:21:40;24.50;99.90
18690;DHT22;9782;52.930;15.562;2023-07-28T08:24:07;24.30;1.00
18690;DHT22;9782;52.930;15.562;2023-07-28T08:26:35;24.20;1.00
18690;DHT22;9782;52.930;15.562;2023-07-28T08:29:02;24.10;1.00
18690;DHT22;9782;52.930;15.562;2023-07-28T08:31:30;24.00;1.00
18690;DHT22;9782;52.930;15.562;2023-07-28T08:33:57;24.00;1.00
18690;DHT22;9782;52.930;15.562;2023-07-28T08:36:24;24.10;1.00
18690;DHT22;9782;52.930;15.562;2023-07-28T08:38:50;24.10;1.00
18690;DHT22;9782;52.930;15.562;2023-07-28T08:41:18;24.10;1.00
18690;DHT22;9782;52.930;15.562;2023-07-28T08:43:46;24.10;1.00
18690;DHT22;9782;52.930;15.562;2023-07-28T08:46:13;24.20;99.90
18690;DHT22;9782;52.930;15.562;2023-07-28T08:48:40;24.30;99.90
18690;DHT22;9782;52.930;15.562;2023-07-28T08:54:06;24.30;99.90
18690;DHT22;9782;52.930;15.562;2023-07-28T08:56:33;24.20;1.00
18690;DHT22;9782;52.930;15.562;2023-07-28T08:59:03;23.90;18.20
18690;DHT22;9782;52.930;15.562;2023-07-28T09:01:30;23.70;99.90
18690;DHT22;9782;52.930;15.562;2023-07-28T09:03:57;23.60;1.00
18690;DHT22;9782;52.930;15.562;2023-07-28T09:11:27;23.70;99.90
18690;DHT22;9782;52.930;15.562;2023-07-28T09:13:55;23.70;1.00
18690;DHT22;9782;52.930;15.562;2023-07-28T09:16:24;23.90;99.90
18690;DHT22;9782;52.930;15.562;2023-07-28T09:31:49;22.90;99.90
18690;DHT22;9782;52.930;15.562;2023-07-28T09:41:55;24.10;44.80
18690;DHT22;9782;52.930;15.562;2023-07-28T09:44:25;24.40;1.00
18690;DHT22;9782;52.930;15.562;2023-07-28T09:46:55;24.40;99.90
18690;DHT22;9782;52.930;15.562;2023-07-28T09:49:28;24.20;99.90
18690;DHT22;9782;52.930;15.562;2023-07-28T10:07:53;23.80;1.00
18690;DHT22;9782;52.930;15.562;2023-07-28T10:10:21;23.90;1.00
18690;DHT22;9782;52.930;15.562;2023-07-28T10:12:50;24.10;99.90
18690;DHT22;9782;52.930;15.562;2023-07-28T10:15:19;24.20;1.00
18690;DHT22;9782;52.930;15.562;2023-07-28T10:17:47;24.00;1.00
18690;DHT22;9782;52.930;15.562;2023-07-28T10:20:32;23.80;1.00
18690;DHT22;9782;52.930;15.562;2023-07-28T10:23:06;23.60;55.00
18690;DHT22;9782;52.930;15.562;2023-07-28T10:25:35;23.50;99.90
18690;DHT22;9782;52.930;15.562;2023-07-28T10:28:04;23.50;99.90
18690;DHT22;9782;52.930;15.562;2023-07-28T10:30:35;23.70;99.90
18690;DHT22;9782;52.930;15.562;2023-07-28T10:33:04;23.90;99.90
18690;DHT22;9782;52.930;15.562;2023-07-28T10:35:31;24.00;29.80
18690;DHT22;9782;52.930;15.562;2023-07-28T10:38:32;24.10;1.00
18690;DHT22;9782;52.930;15.562;2023-07-28T10:41:07;24.40;1.00
18690;DHT22;9782;52.930;15.562;2023-07-28T10:43:35;24.70;1.00
18690;DHT22;9782;52.930;15.562;2023-07-28T10:46:03;24.90;66.30
18690;DHT22;9782;52.930;15.562;2023-07-28T10:48:30;25.10;1.00
18690;DHT22;9782;52.930;15.562;2023-07-28T10:50:57;25.10;1.00
18690;DHT22;9782;52.930;15.562;2023-07-28T10:53:24;25.10;99.90
18690;DHT22;9782;52.930;15.562;2023-07-28T10:55:53;25.10;1.00
18690;DHT22;9782;52.930;15.562;2023-07-28T10:58:20;25.40;99.90
18690;DHT22;9782;52.930;15.562;2023-07-28T11:00:47;25.90;1.00
18690;DHT22;9782;52.930;15.562;2023-07-28T11:03:16;26.20;99.90
18690;DHT22;9782;52.930;15.562;2023-07-28T11:05:48;26.00;1.00
18690;DHT22;9782;52.930;15.562;2023-07-28T11:08:16;25.10;99.90
18690;DHT22;9782;52.930;15.562;2023-07-28T11:10:43;23.80;1.00
18690;DHT22;9782;52.930;15.562;2023-07-28T11:18:27;21.80;1.00
18690;DHT22;9782;52.930;15.562;2023-07-28T11:20:54;21.60;1.00
18690;DHT22;9782;52.930;15.562;2023-07-28T11:23:21;21.30;62.10
18690;DHT22;9782;52.930;15.562;2023-07-28T11:25:49;21.10;1.00
18690;DHT22;9782;52.930;15.562;2023-07-28T11:28:19;21.20;99.90
18690;DHT22;9782;52.930;15.562;2023-07-28T11:30:46;21.30;1.00
18690;DHT22;9782;52.930;15.562;2023-07-28T11:33:13;21.50;99.90
18690;DHT22;9782;52.930;15.562;2023-07-28T11:46:56;23.10;99.90
18690;DHT22;9782;52.930;15.562;2023-07-28T11:49:23;23.30;91.00
18690;DHT22;9782;52.930;15.562;2023-07-28T11:51:52;23.60;1.00
18690;DHT22;9782;52.930;15.562;2023-07-28T11:54:22;23.90;99.90
18690;DHT22;9782;52.930;15.562;2023-07-28T11:56:51;23.80;1.00
18690;DHT22;9782;52.930;15.562;2023-07-28T12:40:28;23.60;93.80
18690;DHT22;9782;52.930;15.562;2023-07-28T12:42:56;24.10;1.00
18690;DHT22;9782;52.930;15.562;2023-07-28T12:45:23;24.80;99.90
18690;DHT22;9782;52.930;15.562;2023-07-28T14:05:38;26.80;9.70
18690;DHT22;9782;52.930;15.562;2023-07-28T14:16:32;26.30;99.90
18690;DHT22;9782;52.930;15.562;2023-07-28T15:57:18;25.30;1.00
18690;DHT22;9782;52.930;15.562;2023-07-28T15:59:54;25.30;70.40
18690;DHT22;9782;52.930;15.562;2023-07-28T16:02:24;25.10;1.00
18690;DHT22;9782;52.930;15.562;2023-07-28T16:04:51;24.90;1.00
18690;DHT22;9782;52.930;15.562;2023-07-28T16:07:18;24.70;1.00
18690;DHT22;9782;52.930;15.562;2023-07-28T16:09:45;24.60;1.00
18690;DHT22;9782;52.930;15.562;2023-07-28T16:12:14;24.60;1.00
18690;DHT22;9782;52.930;15.562;2023-07-28T16:14:46;24.60;1.00
18690;DHT22;9782;52.930;15.562;2023-07-28T16:17:16;24.50;1.00
18690;DHT22;9782;52.930;15.562;2023-07-28T16:22:55;24.30;99.90
18690;DHT22;9782;52.930;15.562;2023-07-28T16:25:31;24.30;99.90
18690;DHT22;9782;52.930;15.562;2023-07-28T16:28:20;24.20;99.90
18690;DHT22;9782;52.930;15.562;2023-07-28T16:30:50;24.10;99.90
18690;DHT22;9782;52.930;15.562;2023-07-28T16:33:34;24.00;99.90
18690;DHT22;9782;52.930;15.562;2023-07-28T16:36:24;24.00;99.90
18690;DHT22;9782;52.930;15.562;2023-07-28T16:39:04;23.90;99.90
18690;DHT22;9782;52.930;15.562;2023-07-28T16:41:39;23.90;99.90
18690;DHT22;9782;52.930;15.562;2023-07-28T16:44:13;24.00;1.00
18690;DHT22;9782;52.930;15.562;2023-07-28T16:46:40;24.00;99.90
18690;DHT22;9782;52.930;15.562;2023-07-28T16:49:18;24.00;99.90
18690;DHT22;9782;52.930;15.562;2023-07-28T16:51:45;24.10;99.90
18690;DHT22;9782;52.930;15.562;2023-07-28T16:54:13;24.40;99.90
18690;DHT22;9782;52.930;15.562;2023-07-28T16:56:40;24.50;99.90
18690;DHT22;9782;52.930;15.562;2023-07-28T16:59:43;24.90;1.00
18690;DHT22;9782;52.930;15.562;2023-07-28T17:02:12;25.10;1.00
18690;DHT22;9782;52.930;15.562;2023-07-28T17:04:41;25.10;1.00
18690;DHT22;9782;52.930;15.562;2023-07-28T17:07:09;24.90;1.00
18690;DHT22;9782;52.930;15.562;2023-07-28T17:09:36;24.80;1.00
18690;DHT22;9782;52.930;15.562;2023-07-28T17:12:04;25.10;1.00
18690;DHT22;9782;52.930;15.562;2023-07-28T17:14:31;25.70;1.00
18690;DHT22;9782;52.930;15.562;2023-07-28T17:16:59;26.00;99.90
18690;DHT22;9782;52.930;15.562;2023-07-28T17:26:46;25.20;99.90
18690;DHT22;9782;52.930;15.562;2023-07-28T17:29:18;25.70;99.90
18690;DHT22;9782;52.930;15.562;2023-07-28T17:31:48;26.00;1.00
18690;DHT22;9782;52.930;15.562;2023-07-28T17:34:27;26.10;99.90
18690;DHT22;9782;52.930;15.562;2023-07-28T18:42:38;21.30;1.00
18690;DHT22;9782;52.930;15.562;2023-07-28T19:20:19;19.70;99.90
18690;DHT22;9782;52.930;15.562;2023-07-28T19:22:46;19.60;1.00
18690;DHT22;9782;52.930;15.562;2023-07-28T19:25:13;19.50;1.00
18690;DHT22;9782;52.930;15.562;2023-07-28T19:27:41;19.40;13.00
18690;DHT22;9782;52.930;15.562;2023-07-28T19:30:09;19.30;99.90
18690;DHT22;9782;52.930;15.562;2023-07-28T19:32:36;19.30;99.90
18690;DHT22;9782;52.930;15.562;2023-07-28T19:35:04;19.20;99.90
18690;DHT22;9782;52.930;15.562;2023-07-28T19:37:47;19.10;99.90
18690;DHT22;9782;52.930;15.562;2023-07-28T19:40:15;19.00;99.90
18690;DHT22;9782;52.930;15.562;2023-07-28T19:42:50;18.90;99.90
18690;DHT22;9782;52.930;15.562;2023-07-28T19:55:35;18.60;1.00
18690;DHT22;9782;52.930;15.562;2023-07-28T19:58:02;18.50;1.00
18690;DHT22;9782;52.930;15.562;2023-07-28T20:00:32;18.40;1.00
18690;DHT22;9782;52.930;15.562;2023-07-28T20:02:59;18.40;1.00
18690;DHT22;9782;52.930;15.562;2023-07-28T20:05:27;18.30;1.00
18690;DHT22;9782;52.930;15.562;2023-07-28T20:07:54;18.20;1.00
18690;DHT22;9782;52.930;15.562;2023-07-28T20:10:22;18.20;93.50
18690;DHT22;9782;52.930;15.562;2023-07-28T20:12:51;18.20;99.90
18690;DHT22;9782;52.930;15.562;2023-07-28T20:15:18;18.10;99.90
18690;DHT22;9782;52.930;15.562;2023-07-28T20:17:45;18.10;99.90
18690;DHT22;9782;52.930;15.562;2023-07-28T20:20:12;18.10;99.90
18690;DHT22;9782;52.930;15.562;2023-07-28T20:22:39;18.10;99.90
18690;DHT22;9782;52.930;15.562;2023-07-28T20:25:06;18.00;99.90
18690;DHT22;9782;52.930;15.562;2023-07-28T20:27:41;18.00;99.90
18690;DHT22;9782;52.930;15.562;2023-07-28T20:30:10;18.00;99.90
18690;DHT22;9782;52.930;15.562;2023-07-28T20:32:37;18.00;99.90
18690;DHT22;9782;52.930;15.562;2023-07-28T20:35:04;17.90;99.90
18690;DHT22;9782;52.930;15.562;2023-07-28T20:37:31;17.80;99.90
18690;DHT22;9782;52.930;15.562;2023-07-28T20:39:58;17.80;99.90
18690;DHT22;9782;52.930;15.562;2023-07-28T20:42:26;17.70;1.00
18690;DHT22;9782;52.930;15.562;2023-07-28T20:44:53;17.70;1.00
18690;DHT22;9782;52.930;15.562;2023-07-28T20:47:21;17.60;1.00
18690;DHT22;9782;52.930;15.562;2023-07-28T20:49:48;17.50;1.00
